createdAt,value
2023-10-15T00:00:28.164Z,62.80
2023-10-15T00:02:55.202Z,62.70
2023-10-15T00:05:31.199Z,63.00
2023-10-15T00:08:00.046Z,64.40
2023-10-15T00:10:29.173Z,63.90
2023-10-15T00:12:57.454Z,64.30
2023-10-15T00:15:27.090Z,65.10
2023-10-15T00:17:56.015Z,64.60
2023-10-15T00:20:32.839Z,64.60
2023-10-15T00:23:07.641Z,63.90
2023-10-15T00:25:38.135Z,63.90
2023-10-15T00:28:11.350Z,63.00
2023-10-15T00:30:38.637Z,64.40
2023-10-15T00:33:08.983Z,63.70
2023-10-15T00:35:36.369Z,63.90
2023-10-15T00:38:12.771Z,63.90
2023-10-15T00:40:39.651Z,64.20
2023-10-15T00:43:09.569Z,63.50
2023-10-15T00:45:46.818Z,64.90
2023-10-15T00:48:23.679Z,65.80
2023-10-15T00:50:55.292Z,65.40
2023-10-15T00:53:27.833Z,64.60
2023-10-15T00:56:11.447Z,64.70
2023-10-15T00:58:44.471Z,63.50
2023-10-15T01:01:21.025Z,62.60
2023-10-15T01:03:55.800Z,62.70
2023-10-15T01:06:36.444Z,63.00
2023-10-15T01:09:41.536Z,62.50
2023-10-15T01:12:24.650Z,64.20
2023-10-15T01:14:51.434Z,63.10
2023-10-15T01:17:18.219Z,62.90
2023-10-15T01:19:45.091Z,63.70
2023-10-15T01:22:19.086Z,64.30
2023-10-15T01:24:52.420Z,65.30
2023-10-15T01:27:31.821Z,64.80
2023-10-15T01:30:00.466Z,64.50
2023-10-15T01:32:27.590Z,64.20
2023-10-15T01:34:54.926Z,63.60
2023-10-15T01:37:24.361Z,63.70
2023-10-15T01:40:16.012Z,65.00
2023-10-15T01:42:43.011Z,64.40
2023-10-15T01:45:10.436Z,64.00
2023-10-15T01:47:38.805Z,64.50
2023-10-15T01:50:16.490Z,65.50
2023-10-15T01:52:44.100Z,64.90
2023-10-15T01:55:14.108Z,64.10
2023-10-15T01:57:42.423Z,63.70
2023-10-15T02:00:34.593Z,63.20
2023-10-15T02:03:02.551Z,63.20
2023-10-15T02:05:42.449Z,64.10
2023-10-15T02:08:09.438Z,63.60
2023-10-15T02:10:40.878Z,63.10
2023-10-15T02:13:09.431Z,62.50
2023-10-15T02:15:42.143Z,61.80
2023-10-15T02:18:10.571Z,61.40
2023-10-15T02:20:48.701Z,61.30
2023-10-15T02:23:22.060Z,61.10
2023-10-15T02:26:00.222Z,61.50
2023-10-15T02:28:33.613Z,61.20
2023-10-15T02:31:15.576Z,61.60
2023-10-15T02:33:43.591Z,61.90
2023-10-15T02:36:11.285Z,61.90
2023-10-15T02:38:39.967Z,62.20
2023-10-15T02:41:07.619Z,64.10
2023-10-15T02:43:42.320Z,63.20
2023-10-15T02:46:24.717Z,62.80
2023-10-15T02:49:00.282Z,62.80
2023-10-15T02:51:27.763Z,62.10
2023-10-15T02:53:56.634Z,62.00
2023-10-15T02:56:29.564Z,62.10
2023-10-15T02:58:56.358Z,62.80
2023-10-15T03:01:25.099Z,62.90
2023-10-15T03:03:54.145Z,64.40
2023-10-15T03:06:32.893Z,64.90
2023-10-15T03:09:00.594Z,64.20
2023-10-15T03:11:33.586Z,64.00
2023-10-15T03:14:02.845Z,63.70
2023-10-15T03:16:32.282Z,64.10
2023-10-15T03:19:08.422Z,63.90
2023-10-15T03:21:41.688Z,63.30
2023-10-15T03:24:09.000Z,62.80
2023-10-15T03:26:36.282Z,61.90
2023-10-15T03:29:09.808Z,61.90
2023-10-15T03:31:38.861Z,62.10
2023-10-15T03:34:08.099Z,62.10
2023-10-15T03:36:50.299Z,62.10
2023-10-15T03:39:32.647Z,62.20
2023-10-15T03:42:18.335Z,62.00
2023-10-15T03:44:51.280Z,61.90
2023-10-15T03:47:23.340Z,61.50
2023-10-15T03:49:52.526Z,61.80
2023-10-15T03:52:22.966Z,61.70
2023-10-15T03:54:53.311Z,61.60
2023-10-15T03:57:35.783Z,61.40
2023-10-15T04:00:02.516Z,61.30
2023-10-15T04:02:41.025Z,60.90
2023-10-15T04:05:21.263Z,61.70
2023-10-15T04:07:49.639Z,64.00
2023-10-15T04:10:24.444Z,65.40
2023-10-15T04:12:51.829Z,65.20
2023-10-15T04:15:23.414Z,64.20
2023-10-15T04:17:50.661Z,63.40
2023-10-15T04:20:26.850Z,63.10
2023-10-15T04:22:55.014Z,63.10
2023-10-15T04:25:25.890Z,63.20
2023-10-15T04:27:58.344Z,63.50
2023-10-15T04:30:25.065Z,62.80
2023-10-15T04:32:51.992Z,62.80
2023-10-15T04:35:20.215Z,63.00
2023-10-15T04:37:49.852Z,62.90
2023-10-15T04:40:19.633Z,63.00
2023-10-15T04:42:51.489Z,63.00
2023-10-15T04:45:41.178Z,63.20
2023-10-15T04:48:17.169Z,63.20
2023-10-15T04:50:44.904Z,63.30
2023-10-15T04:53:35.238Z,63.30
2023-10-15T04:56:02.381Z,63.10
2023-10-15T04:58:31.707Z,63.20
2023-10-15T05:01:01.800Z,63.30
2023-10-15T05:03:28.697Z,63.70
2023-10-15T05:06:01.098Z,63.90
2023-10-15T05:08:28.049Z,63.80
2023-10-15T05:10:55.632Z,63.70
2023-10-15T05:13:22.454Z,64.00
2023-10-15T05:15:54.184Z,64.00
2023-10-15T05:18:20.971Z,63.90
2023-10-15T05:20:49.886Z,63.70
2023-10-15T05:23:18.606Z,63.10
2023-10-15T05:25:45.355Z,62.90
2023-10-15T05:28:15.828Z,62.90
2023-10-15T05:30:43.482Z,62.20
2023-10-15T05:33:10.314Z,62.30
2023-10-15T05:35:39.013Z,62.30
2023-10-15T05:38:09.991Z,62.90
2023-10-15T05:40:45.603Z,62.90
2023-10-15T05:43:12.498Z,62.60
2023-10-15T05:45:40.487Z,62.90
2023-10-15T05:48:10.583Z,63.50
2023-10-15T05:50:38.844Z,63.90
2023-10-15T05:53:07.530Z,64.00
2023-10-15T05:55:34.266Z,64.10
2023-10-15T05:58:00.979Z,64.40
2023-10-15T06:00:30.030Z,64.20
2023-10-15T06:02:58.427Z,63.30
2023-10-15T06:05:25.584Z,63.60
2023-10-15T06:07:53.580Z,63.40
2023-10-15T06:10:21.266Z,62.90
2023-10-15T06:12:48.073Z,62.80
2023-10-15T06:15:19.127Z,63.50
2023-10-15T06:17:48.163Z,63.80
2023-10-15T06:20:15.789Z,64.10
2023-10-15T06:22:47.811Z,65.90
2023-10-15T06:25:17.945Z,65.90
2023-10-15T06:27:46.035Z,65.80
2023-10-15T06:30:16.592Z,65.00
2023-10-15T06:32:50.593Z,64.60
2023-10-15T06:35:24.552Z,64.40
2023-10-15T06:37:53.444Z,64.20
2023-10-15T06:40:23.840Z,64.40
2023-10-15T06:43:01.443Z,63.60
2023-10-15T06:45:29.483Z,63.90
2023-10-15T06:47:58.521Z,63.50
2023-10-15T06:50:28.289Z,64.10
2023-10-15T06:53:02.611Z,64.70
2023-10-15T06:55:32.580Z,64.40
2023-10-15T06:57:59.713Z,64.50
2023-10-15T07:00:27.135Z,64.00
2023-10-15T07:02:56.987Z,64.20
2023-10-15T07:05:26.932Z,64.60
2023-10-15T07:07:55.389Z,65.10
2023-10-15T07:10:24.332Z,65.60
2023-10-15T07:12:51.819Z,65.50
2023-10-15T07:15:21.595Z,65.30
2023-10-15T07:17:50.684Z,65.60
2023-10-15T07:20:26.169Z,66.20
2023-10-15T07:22:54.906Z,67.50
2023-10-15T07:25:22.915Z,66.80
2023-10-15T07:27:50.801Z,66.00
2023-10-15T07:30:21.601Z,66.00
2023-10-15T07:32:49.281Z,65.40
2023-10-15T07:35:22.594Z,65.70
2023-10-15T07:37:51.330Z,65.90
2023-10-15T07:40:19.994Z,65.60
2023-10-15T07:42:54.443Z,65.30
2023-10-15T07:45:28.012Z,65.20
2023-10-15T07:48:00.923Z,65.00
2023-10-15T07:50:28.622Z,64.80
2023-10-15T07:52:58.461Z,65.10
2023-10-15T07:55:25.551Z,64.60
2023-10-15T07:57:55.031Z,64.50
2023-10-15T08:00:25.164Z,64.40
2023-10-15T08:02:59.183Z,64.50
2023-10-15T08:05:33.043Z,64.80
2023-10-15T08:08:05.140Z,64.60
2023-10-15T08:10:38.497Z,64.30
2023-10-15T08:13:07.835Z,64.30
2023-10-15T08:15:35.180Z,64.50
2023-10-15T08:18:03.845Z,64.60
2023-10-15T08:20:33.432Z,64.90
2023-10-15T08:23:00.489Z,65.80
2023-10-15T08:25:27.403Z,66.10
2023-10-15T08:27:56.408Z,66.10
2023-10-15T08:30:24.744Z,65.90
2023-10-15T08:32:51.458Z,65.60
2023-10-15T08:35:18.279Z,66.20
2023-10-15T08:37:47.933Z,66.40
2023-10-15T08:40:18.826Z,67.10
2023-10-15T08:42:51.832Z,66.50
2023-10-15T08:45:23.653Z,66.00
2023-10-15T08:47:51.503Z,65.30
2023-10-15T08:50:21.957Z,66.40
2023-10-15T08:52:53.505Z,66.50
2023-10-15T08:55:24.293Z,66.60
2023-10-15T08:57:58.241Z,67.20
2023-10-15T09:00:33.320Z,67.00
2023-10-15T09:03:02.335Z,66.80
2023-10-15T09:05:41.663Z,67.00
2023-10-15T09:08:09.479Z,66.60
2023-10-15T09:10:38.061Z,66.70
2023-10-15T09:13:06.265Z,66.40
2023-10-15T09:15:39.743Z,66.20
2023-10-15T09:18:06.588Z,66.70
2023-10-15T09:20:36.409Z,66.90
2023-10-15T09:23:05.342Z,67.40
2023-10-15T09:25:37.235Z,67.80
2023-10-15T09:28:04.838Z,67.70
2023-10-15T09:30:31.784Z,67.40
2023-10-15T09:32:58.772Z,67.70
2023-10-15T09:35:26.660Z,67.90
2023-10-15T09:37:55.276Z,67.80
2023-10-15T09:40:22.256Z,67.70
2023-10-15T09:42:50.532Z,68.30
2023-10-15T09:45:20.180Z,68.30
2023-10-15T09:48:01.421Z,68.30
2023-10-15T09:50:33.042Z,68.40
2023-10-15T09:53:10.891Z,68.00
2023-10-15T09:55:39.761Z,67.30
2023-10-15T09:58:07.357Z,66.10
2023-10-15T10:00:47.709Z,66.10
2023-10-15T10:03:59.070Z,66.00
2023-10-15T10:06:49.710Z,65.50
2023-10-15T10:09:22.795Z,64.90
2023-10-15T10:11:58.684Z,65.20
2023-10-15T10:14:31.212Z,65.80
2023-10-15T10:17:01.306Z,66.50
2023-10-15T10:19:29.056Z,66.20
2023-10-15T10:21:57.012Z,66.20
2023-10-15T10:24:24.987Z,66.20
2023-10-15T10:26:57.788Z,66.00
2023-10-15T10:29:27.289Z,65.80
2023-10-15T10:31:57.257Z,64.10
2023-10-15T10:34:31.186Z,64.70
2023-10-15T10:37:00.385Z,64.50
2023-10-15T10:39:43.876Z,64.60
2023-10-15T10:42:24.492Z,64.80
2023-10-15T10:44:51.631Z,64.50
2023-10-15T10:47:21.051Z,64.50
2023-10-15T10:50:02.186Z,64.00
2023-10-15T10:52:36.865Z,64.10
2023-10-15T10:55:30.499Z,64.00
2023-10-15T10:58:01.331Z,63.80
2023-10-15T11:00:36.610Z,64.00
2023-10-15T11:03:07.796Z,63.20
2023-10-15T11:05:35.454Z,63.20
2023-10-15T11:08:02.285Z,63.20
2023-10-15T11:10:33.472Z,63.90
2023-10-15T11:13:03.834Z,64.70
2023-10-15T11:15:31.067Z,64.70
2023-10-15T11:17:58.766Z,63.00
2023-10-15T11:20:31.767Z,62.40
2023-10-15T11:23:00.836Z,61.10
2023-10-15T11:25:28.174Z,61.50
2023-10-15T11:27:54.935Z,62.10
2023-10-15T11:30:24.400Z,62.20
2023-10-15T11:32:52.859Z,60.90
2023-10-15T11:35:20.746Z,61.20
2023-10-15T11:37:51.734Z,62.20
2023-10-15T11:40:24.498Z,62.60
2023-10-15T11:42:55.642Z,63.00
2023-10-15T11:45:31.542Z,62.00
2023-10-15T11:47:59.468Z,61.70
2023-10-15T11:50:27.673Z,62.10
2023-10-15T11:52:59.953Z,61.90
2023-10-15T11:55:32.741Z,62.00
2023-10-15T11:58:11.601Z,62.00
2023-10-15T12:00:44.005Z,61.50
2023-10-15T12:03:10.849Z,61.40
2023-10-15T12:05:38.484Z,60.40
2023-10-15T12:08:06.054Z,59.60
2023-10-15T12:10:35.004Z,59.90
2023-10-15T12:13:01.793Z,59.90
2023-10-15T12:15:32.986Z,60.10
2023-10-15T12:18:03.630Z,60.20
2023-10-15T12:20:30.691Z,59.50
2023-10-15T12:22:57.692Z,59.80
2023-10-15T12:25:29.234Z,60.60
2023-10-15T12:27:59.224Z,60.90
2023-10-15T12:30:34.324Z,61.40
2023-10-15T12:33:01.400Z,60.00
2023-10-15T12:35:30.866Z,59.80
2023-10-15T12:38:03.707Z,60.00
2023-10-15T12:40:33.326Z,60.00
2023-10-15T12:43:01.672Z,60.40
2023-10-15T12:45:31.207Z,60.50
2023-10-15T12:48:00.513Z,61.30
2023-10-15T12:50:27.543Z,62.00
2023-10-15T12:52:57.248Z,62.60
2023-10-15T12:55:27.008Z,61.80
2023-10-15T12:57:56.311Z,60.20
2023-10-15T13:00:23.180Z,59.70
2023-10-15T13:02:51.821Z,59.00
2023-10-15T13:05:20.556Z,58.50
2023-10-15T13:07:47.827Z,57.50
2023-10-15T13:10:18.996Z,56.80
2023-10-15T13:12:47.800Z,56.70
2023-10-15T13:15:14.966Z,57.00
2023-10-15T13:17:41.956Z,56.60
2023-10-15T13:20:12.578Z,56.00
2023-10-15T13:22:39.753Z,54.40
2023-10-15T13:25:07.774Z,54.90
2023-10-15T13:27:35.064Z,54.50
2023-10-15T13:30:07.355Z,54.50
2023-10-15T13:32:34.124Z,54.80
2023-10-15T13:35:01.298Z,54.80
2023-10-15T13:37:28.213Z,54.70
2023-10-15T13:39:57.403Z,53.40
2023-10-15T13:42:24.185Z,53.60
2023-10-15T13:44:53.285Z,53.40
2023-10-15T13:47:24.881Z,53.10
2023-10-15T13:49:51.685Z,52.20
2023-10-15T13:52:18.390Z,52.50
2023-10-15T13:54:45.061Z,52.20
2023-10-15T13:57:12.781Z,52.20
2023-10-15T13:59:40.050Z,52.00
2023-10-15T14:02:13.571Z,51.90
2023-10-15T14:04:44.290Z,52.70
2023-10-15T14:07:14.362Z,53.00
2023-10-15T14:09:41.136Z,52.20
2023-10-15T14:12:11.614Z,52.00
2023-10-15T14:14:38.866Z,51.80
2023-10-15T14:17:10.433Z,51.00
2023-10-15T14:19:39.532Z,51.20
2023-10-15T14:22:06.324Z,51.80
2023-10-15T14:24:34.424Z,50.90
2023-10-15T14:27:03.417Z,51.20
2023-10-15T14:29:30.067Z,51.30
2023-10-15T14:31:57.097Z,52.10
2023-10-15T14:34:28.667Z,52.20
2023-10-15T14:36:58.990Z,52.10
2023-10-15T14:39:26.511Z,52.10
2023-10-15T14:41:53.251Z,52.50
2023-10-15T14:44:20.633Z,52.40
2023-10-15T14:46:48.891Z,52.20
2023-10-15T14:49:20.062Z,54.70
2023-10-15T14:51:48.910Z,56.80
2023-10-15T14:54:15.622Z,57.10
2023-10-15T14:56:42.321Z,56.70
2023-10-15T14:59:09.156Z,56.50
2023-10-15T15:01:35.943Z,56.20
2023-10-15T15:04:02.763Z,55.20
2023-10-15T15:06:29.583Z,55.00
2023-10-15T15:08:56.295Z,54.80
2023-10-15T15:11:23.082Z,54.50
2023-10-15T15:13:49.873Z,55.00
2023-10-15T15:16:17.956Z,54.20
2023-10-15T15:18:46.865Z,54.40
2023-10-15T15:21:13.545Z,54.40
2023-10-15T15:23:40.302Z,54.80
2023-10-15T15:26:07.245Z,54.20
2023-10-15T15:28:38.468Z,54.10
2023-10-15T15:31:07.843Z,54.40
2023-10-15T15:33:36.581Z,54.50
2023-10-15T15:36:05.497Z,54.50
2023-10-15T15:38:32.289Z,54.70
2023-10-15T15:41:05.589Z,54.60
2023-10-15T15:43:33.749Z,54.50
2023-10-15T15:46:01.611Z,54.70
2023-10-15T15:48:28.452Z,54.60
2023-10-15T15:50:55.293Z,54.60
2023-10-15T15:53:26.518Z,54.60
2023-10-15T15:55:53.378Z,55.30
2023-10-15T15:58:20.782Z,55.30
2023-10-15T16:00:47.489Z,55.20
2023-10-15T16:03:17.417Z,55.30
2023-10-15T16:05:44.364Z,55.00
2023-10-15T16:08:11.382Z,55.20
2023-10-15T16:10:40.759Z,55.10
2023-10-15T16:13:07.852Z,54.50
2023-10-15T16:15:34.583Z,54.20
2023-10-15T16:18:02.902Z,54.00
2023-10-15T16:20:29.797Z,53.90
2023-10-15T16:22:56.538Z,53.30
2023-10-15T16:25:23.291Z,53.30
2023-10-15T16:27:52.495Z,53.20
2023-10-15T16:30:19.199Z,53.30
2023-10-15T16:32:46.032Z,53.60
2023-10-15T16:35:17.587Z,53.70
2023-10-15T16:37:47.413Z,53.50
2023-10-15T16:40:14.545Z,53.00
2023-10-15T16:42:42.636Z,53.20
2023-10-15T16:45:14.389Z,53.20
2023-10-15T16:47:43.381Z,53.10
2023-10-15T16:50:10.730Z,53.20
2023-10-15T16:52:40.066Z,53.00
2023-10-15T16:55:10.126Z,53.10
2023-10-15T16:57:36.913Z,52.80
2023-10-15T17:00:03.871Z,52.60
2023-10-15T17:02:32.159Z,52.60
2023-10-15T17:04:59.308Z,52.60
2023-10-15T17:07:26.328Z,52.60
2023-10-15T17:09:56.125Z,52.60
2023-10-15T17:12:23.116Z,52.80
2023-10-15T17:14:52.346Z,52.90
2023-10-15T17:17:21.473Z,52.90
2023-10-15T17:19:48.775Z,53.10
2023-10-15T17:22:15.505Z,53.20
2023-10-15T17:24:42.759Z,53.50
2023-10-15T17:27:10.204Z,53.50
2023-10-15T17:29:45.212Z,53.80
2023-10-15T17:32:27.609Z,54.00
2023-10-15T17:34:54.495Z,54.20
2023-10-15T17:37:25.369Z,54.30
2023-10-15T17:39:53.692Z,54.40
2023-10-15T17:42:20.432Z,54.90
2023-10-15T17:44:49.636Z,55.20
2023-10-15T17:47:16.778Z,55.60
2023-10-15T17:49:43.823Z,55.60
2023-10-15T17:52:12.071Z,55.70
2023-10-15T17:54:41.065Z,55.90
2023-10-15T17:57:07.826Z,55.50
2023-10-15T17:59:36.730Z,55.70
2023-10-15T18:02:03.599Z,55.90
2023-10-15T18:04:32.681Z,55.90
2023-10-15T18:07:00.045Z,56.00
2023-10-15T18:09:26.833Z,56.10
2023-10-15T18:11:54.147Z,56.40
2023-10-15T18:14:20.832Z,56.50
2023-10-15T18:16:47.587Z,56.60
2023-10-15T18:19:15.201Z,56.50
2023-10-15T18:21:42.014Z,56.70
2023-10-15T18:24:11.353Z,56.60
2023-10-15T18:26:40.221Z,56.60
2023-10-15T18:29:07.540Z,56.80
2023-10-15T18:31:36.848Z,56.40
2023-10-15T18:34:03.775Z,56.30
2023-10-15T18:36:30.566Z,56.30
2023-10-15T18:38:57.273Z,56.50
2023-10-15T18:41:28.831Z,56.50
2023-10-15T18:43:57.124Z,56.40
2023-10-15T18:46:23.911Z,56.80
2023-10-15T18:48:53.837Z,56.60
2023-10-15T18:51:37.199Z,56.50
2023-10-15T18:54:05.637Z,56.70
2023-10-15T18:56:34.842Z,56.50
2023-10-15T18:59:06.802Z,56.30
2023-10-15T19:01:33.772Z,56.70
2023-10-15T19:04:00.907Z,56.90
2023-10-15T19:06:28.048Z,56.70
2023-10-15T19:08:55.580Z,57.30
2023-10-15T19:11:24.810Z,57.20
2023-10-15T19:13:55.197Z,56.50
2023-10-15T19:16:24.582Z,56.10
2023-10-15T19:18:55.505Z,55.70
2023-10-15T19:21:22.922Z,55.60
2023-10-15T19:23:56.916Z,55.40
2023-10-15T19:26:23.641Z,55.40
2023-10-15T19:28:52.529Z,55.10
2023-10-15T19:31:22.934Z,55.10
2023-10-15T19:33:49.746Z,55.30
2023-10-15T19:36:18.699Z,55.60
2023-10-15T19:38:45.436Z,55.80
2023-10-15T19:41:12.439Z,56.10
2023-10-15T19:43:39.213Z,56.10
2023-10-15T19:46:07.796Z,56.70
2023-10-15T19:48:39.323Z,56.70
2023-10-15T19:51:06.261Z,56.80
2023-10-15T19:53:33.053Z,56.90
2023-10-15T19:56:00.678Z,58.00
2023-10-15T19:58:27.614Z,57.60
2023-10-15T20:00:56.934Z,57.60
2023-10-15T20:03:23.798Z,57.90
2023-10-15T20:05:52.816Z,58.00
2023-10-15T20:08:19.555Z,57.60
2023-10-15T20:10:47.120Z,57.20
2023-10-15T20:13:15.251Z,57.20
2023-10-15T20:15:44.014Z,57.50
2023-10-15T20:18:10.992Z,57.80
2023-10-15T20:20:38.365Z,57.60
2023-10-15T20:23:07.684Z,57.40
2023-10-15T20:25:35.906Z,57.70
2023-10-15T20:28:03.077Z,57.70
2023-10-15T20:30:33.153Z,57.60
2023-10-15T20:33:02.292Z,58.10
2023-10-15T20:35:29.200Z,57.80
2023-10-15T20:38:00.865Z,58.00
2023-10-15T20:40:27.764Z,59.20
2023-10-15T20:42:54.870Z,59.00
2023-10-15T20:45:26.727Z,58.80
2023-10-15T20:47:56.584Z,59.50
2023-10-15T20:50:25.780Z,59.40
2023-10-15T20:52:52.470Z,59.00
2023-10-15T20:55:20.801Z,58.60
2023-10-15T20:57:47.902Z,58.70
2023-10-15T21:00:21.242Z,58.60
2023-10-15T21:02:51.059Z,58.40
2023-10-15T21:05:23.771Z,58.70
2023-10-15T21:07:52.641Z,58.70
2023-10-15T21:10:23.092Z,59.30
2023-10-15T21:12:50.088Z,59.50
2023-10-15T21:15:17.163Z,59.20
2023-10-15T21:17:45.418Z,59.40
2023-10-15T21:20:12.744Z,59.80
2023-10-15T21:22:41.193Z,60.60
2023-10-15T21:25:19.276Z,59.90
2023-10-15T21:27:46.010Z,60.10
2023-10-15T21:30:13.844Z,59.90
2023-10-15T21:32:41.497Z,59.80
2023-10-15T21:35:10.419Z,59.40
2023-10-15T21:37:40.569Z,60.00
2023-10-15T21:40:09.977Z,59.90
2023-10-15T21:42:39.287Z,59.40
2023-10-15T21:45:07.471Z,59.00
2023-10-15T21:47:37.637Z,58.80
2023-10-15T21:50:04.705Z,58.80
2023-10-15T21:52:31.663Z,58.70
2023-10-15T21:54:58.483Z,58.70
2023-10-15T21:57:25.714Z,58.70
2023-10-15T21:59:55.044Z,58.60
2023-10-15T22:02:22.031Z,59.00
2023-10-15T22:04:48.929Z,59.70
2023-10-15T22:07:15.681Z,60.00
2023-10-15T22:09:42.391Z,60.40
2023-10-15T22:12:09.136Z,59.90
2023-10-15T22:14:36.070Z,59.80
2023-10-15T22:17:03.404Z,59.40
2023-10-15T22:19:31.184Z,59.10
2023-10-15T22:21:59.262Z,58.90
2023-10-15T22:24:29.445Z,59.10
2023-10-15T22:26:56.825Z,60.30
2023-10-15T22:31:58.671Z,60.10
2023-10-15T22:34:27.687Z,59.70
2023-10-15T22:36:56.849Z,59.90
2023-10-15T22:39:25.100Z,59.80
2023-10-15T22:41:56.924Z,59.80
2023-10-15T22:44:23.758Z,59.80
2023-10-15T22:46:54.395Z,60.10
2023-10-15T22:49:24.694Z,61.00
2023-10-15T22:51:51.450Z,61.00
2023-10-15T22:54:18.178Z,60.80
2023-10-15T22:56:44.901Z,60.20
2023-10-15T22:59:16.478Z,60.20
2023-10-15T23:01:44.443Z,60.40
2023-10-15T23:04:11.361Z,60.60
2023-10-15T23:06:41.059Z,60.30
2023-10-15T23:09:07.802Z,61.00
2023-10-15T23:11:35.721Z,62.10
2023-10-15T23:14:02.391Z,61.40
2023-10-15T23:16:31.335Z,61.40
2023-10-15T23:18:58.640Z,61.10
2023-10-15T23:21:36.955Z,61.00
2023-10-15T23:24:07.183Z,60.80
2023-10-15T23:26:36.197Z,60.30
2023-10-15T23:29:04.880Z,60.10
2023-10-15T23:31:40.252Z,60.00
2023-10-15T23:34:09.654Z,60.00
2023-10-15T23:36:36.871Z,60.30
2023-10-15T23:39:08.344Z,60.20
2023-10-15T23:41:36.663Z,60.00
2023-10-15T23:44:03.798Z,60.10
2023-10-15T23:46:32.377Z,59.80
2023-10-15T23:49:01.417Z,59.60
2023-10-15T23:51:33.926Z,59.50
2023-10-15T23:54:13.059Z,59.10
2023-10-15T23:56:42.880Z,59.90
2023-10-15T23:59:09.649Z,60.20
